Time;durP1;ratioP1;P1;durP2;ratioP2;P2;SDS_P1;SDS_P2;PMS_P1;PMS_P2;Temp;Humidity;BMP_temperature;BMP_pressure;BME280_temperature;BME280_humidity;BME280_pressure;Samples;Min_cycle;Max_cycle;Signal;HPM_P1;HPM_P2
2023/04/27 00:03:04;;;;;;;6.88;4.72;;;;;;;5.24;55.15;100166.13;10507645;28;20772;-60
2023/04/27 00:08:07;;;;;;;11.00;5.15;;;;;;;5.20;55.18;100168.00;10507706;28;20052;-60
2023/04/27 00:13:09;;;;;;;12.30;4.90;;;;;;;5.08;55.34;100162.38;10491423;28;20047;-60
2023/04/27 00:18:11;;;;;;;8.60;4.97;;;;;;;5.09;55.71;100171.81;10506190;28;20158;-60
2023/04/27 00:23:13;;;;;;;8.73;4.80;;;;;;;5.15;55.61;100162.09;10509335;28;20469;-60
2023/04/27 00:28:14;;;;;;;12.45;5.13;;;;;;;5.15;55.64;100169.03;10524661;28;20178;-61
2023/04/27 00:33:16;;;;;;;9.27;5.47;;;;;;;5.09;55.82;100157.13;10507431;28;20051;-60
2023/04/27 00:38:19;;;;;;;9.48;4.97;;;;;;;5.10;55.68;100161.44;10507281;28;20129;-60
2023/04/27 00:43:20;;;;;;;10.30;5.13;;;;;;;5.12;55.68;100156.19;10489731;28;20074;-60
2023/04/27 00:48:23;;;;;;;9.82;5.07;;;;;;;5.13;55.77;100163.03;10488285;28;20046;-60
2023/04/27 00:53:25;;;;;;;7.85;5.13;;;;;;;5.12;55.97;100156.19;10508016;28;20083;-60
2023/04/27 00:58:27;;;;;;;11.35;5.50;;;;;;;5.08;55.91;100168.41;10499592;28;20046;-60
2023/04/27 01:03:29;;;;;;;9.40;5.35;;;;;;;4.98;56.26;100158.41;10505953;28;20040;-61
2023/04/27 01:08:31;;;;;;;9.80;5.30;;;;;;;4.95;56.09;100161.06;10488301;28;20419;-60
2023/04/27 01:13:35;;;;;;;10.55;5.63;;;;;;;4.91;56.16;100162.06;10488357;28;20040;-60
2023/04/27 01:18:39;;;;;;;13.23;5.57;;;;;;;4.85;56.50;100162.28;10505608;28;20044;-60
2023/04/27 01:23:41;;;;;;;10.80;5.60;;;;;;;4.87;56.61;100168.25;10507686;28;20044;-60
2023/04/27 01:28:45;;;;;;;8.88;5.72;;;;;;;4.88;56.53;100180.34;10487799;28;20314;-60
2023/04/27 01:33:46;;;;;;;10.43;5.60;;;;;;;4.88;56.40;100175.16;10506850;28;20071;-60
2023/04/27 01:38:48;;;;;;;12.85;5.40;;;;;;;4.79;56.74;100178.03;10480983;28;20044;-60
2023/04/27 01:43:50;;;;;;;9.55;5.50;;;;;;;4.86;56.64;100182.13;10482530;28;20046;-60
2023/04/27 01:48:52;;;;;;;10.40;5.13;;;;;;;4.80;56.67;100185.75;10500730;28;20048;-60
2023/04/27 01:53:54;;;;;;;10.90;5.50;;;;;;;4.83;56.40;100179.63;10482104;28;20469;-60
2023/04/27 01:58:55;;;;;;;10.00;5.10;;;;;;;4.73;56.62;100179.06;10474605;28;20468;-60
2023/04/27 02:03:58;;;;;;;10.60;5.70;;;;;;;4.73;56.82;100179.06;10510036;28;20090;-60
2023/04/27 02:09:00;;;;;;;9.93;5.25;;;;;;;4.65;56.93;100183.66;10508965;28;20716;-60
2023/04/27 02:14:02;;;;;;;8.10;5.25;;;;;;;4.65;57.03;100191.44;10496047;28;20059;-60
2023/04/27 02:19:07;;;;;;;11.23;5.95;;;;;;;4.66;57.03;100182.75;10495050;28;20448;-60
2023/04/27 02:24:09;;;;;;;11.73;5.55;;;;;;;4.65;57.24;100189.69;10497507;28;20161;-60
2023/04/27 02:29:10;;;;;;;9.75;5.38;;;;;;;4.65;57.43;100194.88;10499958;28;20052;-60
2023/04/27 02:34:13;;;;;;;12.32;6.05;;;;;;;4.73;57.32;100199.81;10515297;28;20400;-60
2023/04/27 02:39:15;;;;;;;9.40;5.82;;;;;;;4.78;57.17;100203.06;10520903;28;20503;-60
2023/04/27 02:44:17;;;;;;;11.88;5.82;;;;;;;4.73;57.26;100204.97;10520884;28;20112;-60
2023/04/27 02:49:18;;;;;;;11.88;5.53;;;;;;;4.74;57.30;100201.47;10519283;28;20588;-60
2023/04/27 02:54:20;;;;;;;9.65;5.10;;;;;;;4.78;57.20;100194.47;10520289;28;20054;-60
2023/04/27 02:59:22;;;;;;;8.48;5.30;;;;;;;4.68;56.94;100194.75;10502189;28;20079;-60
2023/04/27 03:04:24;;;;;;;10.65;5.47;;;;;;;4.55;57.09;100196.06;10497142;28;20101;-60
2023/04/27 03:09:26;;;;;;;10.93;5.22;;;;;;;4.46;57.54;100200.66;10511905;28;20129;-60
2023/04/27 03:14:28;;;;;;;6.80;4.80;;;;;;;4.39;57.59;100192.22;10511773;28;20050;-60
2023/04/27 03:19:31;;;;;;;11.60;5.57;;;;;;;4.32;57.75;100182.09;10496212;28;20040;-60
2023/04/27 03:24:33;;;;;;;10.32;5.13;;;;;;;4.16;58.00;100173.09;10512345;28;20071;-60
2023/04/27 03:29:35;;;;;;;9.77;5.45;;;;;;;4.09;58.08;100175.00;10494735;28;20052;-60
2023/04/27 03:34:38;;;;;;;8.00;5.38;;;;;;;4.07;58.37;100181.97;10493158;28;20093;-60
2023/04/27 03:39:40;;;;;;;11.55;6.80;;;;;;;4.03;58.30;100175.19;10487374;28;20044;-61
2023/04/27 03:44:43;;;;;;;12.73;6.22;;;;;;;4.01;58.43;100181.31;10493137;28;20044;-61
2023/04/27 03:49:45;;;;;;;9.07;5.72;;;;;;;3.96;58.68;100188.38;10492369;28;20132;-61
2023/04/27 03:54:47;;;;;;;11.13;5.90;;;;;;;3.98;58.70;100202.09;10493271;28;20068;-61
2023/04/27 03:59:49;;;;;;;10.57;5.50;;;;;;;3.98;58.56;100202.09;10491366;28;20503;-60
2023/04/27 04:04:51;;;;;;;10.50;5.53;;;;;;;3.91;58.81;100206.59;10491003;28;20044;-61
2023/04/27 04:09:53;;;;;;;12.70;5.45;;;;;;;3.85;58.77;100205.03;10509587;28;20542;-61
2023/04/27 04:14:55;;;;;;;10.10;5.70;;;;;;;3.79;58.76;100210.38;10491230;28;20139;-61
2023/04/27 04:19:57;;;;;;;9.88;5.78;;;;;;;3.77;58.82;100213.88;10491048;28;20079;-61
2023/04/27 04:24:59;;;;;;;13.77;6.13;;;;;;;3.75;58.84;100215.66;10511423;28;20040;-61
2023/04/27 04:30:05;;;;;;;10.48;5.75;;;;;;;3.77;58.93;100208.69;10490922;28;20178;-61
2023/04/27 04:35:08;;;;;;;10.90;6.25;;;;;;;3.91;58.66;100216.09;10490126;28;20064;-61
2023/04/27 04:40:11;;;;;;;12.15;7.28;;;;;;;4.13;58.58;100217.22;10490677;28;20059;-61
2023/04/27 04:45:14;;;;;;;10.02;6.47;;;;;;;4.39;58.39;100217.28;10480560;28;20058;-61
2023/04/27 04:50:16;;;;;;;9.20;5.55;;;;;;;5.57;56.76;100215.06;10508899;28;20048;-61
2023/04/27 04:55:18;;;;;;;10.05;5.47;;;;;;;6.00;55.41;100221.34;10487902;28;20036;-61
2023/04/27 05:00:21;;;;;;;8.50;5.85;;;;;;;6.18;55.03;100233.66;10514860;28;20147;-61
2023/04/27 05:05:23;;;;;;;11.13;5.93;;;;;;;6.56;53.99;100235.69;10479119;28;20070;-61
2023/04/27 05:10:25;;;;;;;11.38;6.10;;;;;;;6.05;54.40;100222.03;10503237;28;20139;-61
2023/04/27 05:15:27;;;;;;;10.27;6.32;;;;;;;5.89;54.74;100229.53;10500514;28;20483;-61
2023/04/27 05:20:28;;;;;;;9.18;6.13;;;;;;;5.78;54.79;100230.81;10503822;28;20098;-61
2023/04/27 05:25:32;;;;;;;9.10;5.43;;;;;;;5.54;55.47;100233.38;10501113;28;20044;-62
2023/04/27 05:30:36;;;;;;;12.00;5.20;;;;;;;5.79;55.19;100242.88;10503340;28;20439;-61
2023/04/27 05:35:38;;;;;;;12.05;5.38;;;;;;;6.03;54.83;100239.41;10499176;28;20139;-61
2023/04/27 05:40:40;;;;;;;9.90;6.32;;;;;;;6.12;54.48;100247.69;10499766;28;20484;-61
2023/04/27 05:45:42;;;;;;;9.88;5.75;;;;;;;6.31;54.28;100248.75;10480984;28;20051;-61
2023/04/27 05:50:44;;;;;;;10.18;5.70;;;;;;;6.40;54.01;100251.91;10484700;28;20397;-61
2023/04/27 05:55:46;;;;;;;12.13;5.90;;;;;;;6.61;53.87;100253.72;10500234;28;20131;-61
2023/04/27 06:00:47;;;;;;;12.82;7.50;;;;;;;6.92;53.43;100262.84;10502866;28;20504;-61
2023/04/27 06:05:56;;;;;;;15.27;8.85;;;;;;;7.14;53.11;100265.44;10499949;28;20055;-61
2023/04/27 06:10:59;;;;;;;14.30;7.17;;;;;;;7.41;52.85;100268.66;10502405;28;20055;-61
2023/04/27 06:16:01;;;;;;;10.07;5.80;;;;;;;7.56;52.22;100270.63;10499969;28;20490;-61
2023/04/27 06:21:03;;;;;;;8.90;5.82;;;;;;;7.88;51.45;100280.50;10503432;28;20458;-60
2023/04/27 06:26:05;;;;;;;13.38;6.18;;;;;;;8.39;50.35;100266.97;10501838;28;20040;-61
2023/04/27 06:31:07;;;;;;;11.55;5.82;;;;;;;8.73;49.87;100269.69;10481900;28;20102;-61
2023/04/27 06:36:10;;;;;;;25.70;9.63;;;;;;;9.03;48.98;100270.88;10516863;28;20063;-60
2023/04/27 06:41:12;;;;;;;13.68;6.57;;;;;;;9.20;47.97;100265.69;10503415;28;20450;-59
2023/04/27 06:46:14;;;;;;;10.68;6.53;;;;;;;9.33;47.35;100268.53;10501214;28;20790;-61
2023/04/27 06:51:16;;;;;;;9.70;5.95;;;;;;;9.48;46.56;100273.84;10507253;28;20296;-61
2023/04/27 06:56:18;;;;;;;13.23;6.45;;;;;;;9.17;45.71;100276.28;10499904;28;20050;-61
2023/04/27 07:01:20;;;;;;;13.90;6.43;;;;;;;8.94;46.71;100273.91;10519598;27;20040;-61
2023/04/27 07:06:24;;;;;;;12.00;6.40;;;;;;;9.15;45.70;100278.13;10510348;28;20050;-61
2023/04/27 07:11:27;;;;;;;14.13;6.72;;;;;;;9.07;45.85;100268.97;10505770;28;20070;-61
2023/04/27 07:16:30;;;;;;;11.43;6.07;;;;;;;9.06;45.76;100268.09;10486020;28;20043;-61
2023/04/27 07:21:32;;;;;;;13.82;5.72;;;;;;;9.04;45.96;100269.94;10510275;28;20143;-61
2023/04/27 07:26:35;;;;;;;14.57;6.72;;;;;;;8.88;45.69;100262.91;10510431;28;20043;-61
2023/04/27 07:31:40;;;;;;;12.10;6.35;;;;;;;9.02;46.06;100260.50;10506692;28;20068;-61
2023/04/27 07:36:44;;;;;;;10.95;5.78;;;;;;;10.31;44.22;100250.41;10504364;28;20694;-61
2023/04/27 07:41:47;;;;;;;12.02;6.00;;;;;;;11.48;41.95;100249.91;10508090;28;20050;-61
2023/04/27 07:46:52;;;;;;;10.43;5.90;;;;;;;12.19;41.14;100246.44;10509849;28;20044;-61
2023/04/27 07:51:55;;;;;;;12.98;5.43;;;;;;;12.32;39.54;100239.53;10489575;28;20199;-61
2023/04/27 07:56:57;;;;;;;10.57;5.15;;;;;;;12.58;39.04;100228.25;10504416;28;20040;-61
2023/04/27 08:02:00;;;;;;;12.98;5.40;;;;;;;13.38;37.07;100228.25;10507074;28;20062;-61
2023/04/27 08:07:20;;;;;;;12.50;5.20;;;;;;;13.88;37.85;100219.56;10505411;28;20051;-62
2023/04/27 08:12:23;;;;;;;8.95;5.18;;;;;;;13.82;35.52;100225.25;10506745;28;20483;-61
2023/04/27 08:17:25;;;;;;;11.63;5.32;;;;;;;13.92;35.64;100223.72;10508045;28;20508;-62
2023/04/27 08:22:28;;;;;;;9.82;5.30;;;;;;;13.96;35.29;100217.28;10508718;28;20048;-62
2023/04/27 08:27:30;;;;;;;13.88;5.22;;;;;;;14.71;34.93;100218.09;10507219;28;20135;-62
2023/04/27 08:32:32;;;;;;;13.48;5.70;;;;;;;13.84;34.32;100220.72;10506755;28;20559;-62
2023/04/27 08:37:34;;;;;;;10.55;5.28;;;;;;;14.23;33.38;100215.34;10508413;28;20442;-63
2023/04/27 08:42:37;;;;;;;11.55;5.32;;;;;;;14.22;33.19;100212.84;10501795;28;20499;-64
2023/04/27 08:47:39;;;;;;;12.98;5.50;;;;;;;14.87;33.94;100216.03;10502198;28;20048;-62
2023/04/27 08:52:46;;;;;;;13.77;6.20;;;;;;;14.94;32.51;100209.38;10473383;28;20678;-61
2023/04/27 08:57:55;;;;;;;10.75;5.10;;;;;;;15.28;32.32;100203.28;10477176;28;20695;-63
2023/04/27 09:02:57;;;;;;;17.80;5.72;;;;;;;14.96;31.75;100208.31;10500119;28;20411;-64
2023/04/27 09:08:03;;;;;;;8.63;4.65;;;;;;;15.06;32.38;100190.03;10500106;28;20040;-63
2023/04/27 09:13:05;;;;;;;11.30;4.57;;;;;;;15.39;32.62;100193.63;10504955;28;20097;-64
2023/04/27 09:18:20;;;;;;;7.85;4.20;;;;;;;15.86;31.47;100190.03;10500251;28;20355;-64
2023/04/27 09:23:30;;;;;;;10.23;4.85;;;;;;;15.49;30.12;100185.88;10504213;28;20055;-63
2023/04/27 09:28:33;;;;;;;8.23;4.77;;;;;;;15.36;30.93;100191.22;10502454;28;20078;-63
2023/04/27 09:33:35;;;;;;;10.70;4.50;;;;;;;15.47;31.42;100179.84;10478708;28;20190;-63
2023/04/27 09:38:37;;;;;;;11.73;4.95;;;;;;;15.33;31.87;100182.69;10501335;28;20052;-63
2023/04/27 09:43:46;;;;;;;9.48;4.78;;;;;;;15.44;30.66;100182.75;10504944;28;20460;-63
2023/04/27 09:48:50;;;;;;;14.13;4.97;;;;;;;15.52;30.51;100174.28;10501483;28;20097;-63
2023/04/27 09:53:57;;;;;;;13.40;4.63;;;;;;;15.49;30.55;100164.78;10501427;28;20052;-63
2023/04/27 09:59:26;;;;;;;11.02;4.70;;;;;;;15.92;29.85;100159.69;10502896;28;20046;-63
2023/04/27 10:04:56;;;;;;;9.15;5.05;;;;;;;16.30;28.95;100157.53;10501327;28;20487;-64
2023/04/27 10:10:01;;;;;;;14.10;4.80;;;;;;;16.13;30.08;100145.66;10481931;28;20048;-65
2023/04/27 10:15:12;;;;;;;8.30;4.35;;;;;;;16.10;30.47;100156.44;10499126;28;20044;-65
2023/04/27 10:20:14;;;;;;;8.82;4.43;;;;;;;15.87;29.86;100143.41;10503944;28;20060;-65
2023/04/27 10:25:24;;;;;;;11.77;4.20;;;;;;;15.63;30.76;100146.16;10508608;28;20602;-63
2023/04/27 10:30:30;;;;;;;;;;;;;;;15.35;28.55;100149.16;10506605;28;20086;-63
2023/04/27 10:35:41;;;;;;;9.70;4.15;;;;;;;15.82;29.20;100149.03;10504045;28;19928;-64
2023/04/27 10:40:52;;;;;;;8.13;4.15;;;;;;;15.74;29.07;100140.88;10508640;28;20435;-64
2023/04/27 10:46:10;;;;;;;10.57;4.90;;;;;;;15.84;28.92;100133.06;10506330;28;20044;-63
2023/04/27 10:51:18;;;;;;;10.80;4.55;;;;;;;15.82;29.41;100125.28;10486621;28;20503;-64
2023/04/27 10:56:22;;;;;;;10.00;4.25;;;;;;;15.85;29.98;100119.78;10508639;28;20040;-64
2023/04/27 11:01:27;;;;;;;7.03;4.45;;;;;;;15.62;30.91;100117.25;10505333;28;20048;-63
2023/04/27 11:06:33;;;;;;;9.15;4.32;;;;;;;15.65;30.80;100114.38;10488327;28;20496;-64
2023/04/27 11:11:35;;;;;;;10.10;4.53;;;;;;;15.71;30.08;100109.47;10499867;28;20090;-63
2023/04/27 11:16:45;;;;;;;14.98;4.60;;;;;;;15.98;29.82;100104.66;10500267;28;20173;-63
2023/04/27 11:21:47;;;;;;;9.35;4.47;;;;;;;16.17;30.84;100088.19;10508175;28;20367;-63
2023/04/27 11:26:52;;;;;;;10.73;4.50;;;;;;;16.28;28.94;100077.63;10504472;28;20084;-63
2023/04/27 11:31:54;;;;;;;10.80;4.10;;;;;;;16.35;29.71;100075.31;10501834;28;20044;-63
2023/04/27 11:36:58;;;;;;;11.02;4.32;;;;;;;16.33;29.70;100069.31;10491099;28;20118;-63
2023/04/27 11:42:22;;;;;;;9.52;3.90;;;;;;;16.44;30.00;100067.53;10503822;28;20056;-62
2023/04/27 11:47:26;;;;;;;10.52;4.07;;;;;;;17.04;29.47;100072.16;10506153;28;20101;-63
2023/04/27 11:52:32;;;;;;;10.00;3.78;;;;;;;17.26;28.89;100068.56;10509790;28;20080;-64
2023/04/27 11:57:35;;;;;;;9.05;4.03;;;;;;;17.06;29.15;100072.06;10507606;28;20126;-63
2023/04/27 12:02:37;;;;;;;8.25;3.83;;;;;;;16.93;28.51;100065.16;10506762;28;20411;-64
2023/04/27 12:07:40;;;;;;;9.20;4.10;;;;;;;16.80;28.77;100058.38;10511091;28;20040;-64
2023/04/27 12:12:42;;;;;;;18.67;4.50;;;;;;;16.94;28.89;100055.41;10511956;28;20326;-64
2023/04/27 12:17:43;;;;;;;9.38;4.15;;;;;;;16.69;29.24;100045.22;10508642;28;20039;-65
2023/04/27 12:22:45;;;;;;;12.02;3.70;;;;;;;16.84;29.65;100036.00;10511066;28;20044;-65
2023/04/27 12:27:47;;;;;;;10.15;4.25;;;;;;;16.75;29.22;100036.78;10509582;28;20036;-65
2023/04/27 12:32:50;;;;;;;12.10;4.22;;;;;;;16.53;29.74;100027.16;10490022;28;20113;-65
2023/04/27 12:37:51;;;;;;;7.50;4.10;;;;;;;16.42;29.69;100024.56;10508894;28;20496;-65
2023/04/27 12:42:53;;;;;;;9.35;4.20;;;;;;;16.68;29.77;100028.53;10507631;28;20048;-65
2023/04/27 12:47:55;;;;;;;10.48;4.30;;;;;;;16.98;30.35;100017.19;10509068;28;20048;-66
2023/04/27 12:53:04;;;;;;;8.43;3.75;;;;;;;17.20;30.03;100017.03;10522334;28;20104;-65
2023/04/27 12:58:06;;;;;;;7.85;3.83;;;;;;;17.07;29.53;100011.13;10490413;28;20044;-65
2023/04/27 13:03:08;;;;;;;6.80;3.90;;;;;;;16.84;30.11;100009.59;10504633;28;20130;-65
2023/04/27 13:08:10;;;;;;;10.15;4.55;;;;;;;16.77;30.99;100003.97;10473920;28;20044;-65
2023/04/27 13:13:12;;;;;;;9.55;4.35;;;;;;;16.54;32.11;100009.53;10506241;28;20129;-65
2023/04/27 13:18:14;;;;;;;9.77;4.00;;;;;;;16.54;32.58;100004.25;10508489;28;20733;-66
2023/04/27 13:23:16;;;;;;;12.57;4.13;;;;;;;16.21;31.01;100006.03;10508602;28;20120;-65
2023/04/27 13:28:18;;;;;;;9.43;4.40;;;;;;;16.39;31.32;99997.53;10506485;28;20466;-65
2023/04/27 13:33:20;;;;;;;14.90;4.20;;;;;;;16.38;32.77;99994.09;10521221;28;20039;-66
2023/04/27 13:38:24;;;;;;;7.47;3.75;;;;;;;16.68;32.58;99996.00;10508664;28;20087;-64
2023/04/27 13:43:26;;;;;;;8.50;4.10;;;;;;;17.32;29.98;99994.00;10508484;28;20040;-65
2023/04/27 13:48:29;;;;;;;7.57;3.50;;;;;;;17.36;30.47;99995.44;10506110;28;20044;-64
2023/04/27 13:53:31;;;;;;;10.55;3.35;;;;;;;17.70;29.91;99989.72;10523421;28;20121;-64
2023/04/27 13:58:32;;;;;;;10.98;4.20;;;;;;;17.53;29.34;99993.00;10515666;28;20040;-64
2023/04/27 14:03:34;;;;;;;8.10;3.80;;;;;;;17.37;30.34;99992.66;10512103;28;20128;-64
2023/04/27 14:08:36;;;;;;;10.13;3.90;;;;;;;17.38;30.04;99986.44;10512586;28;20138;-64
2023/04/27 14:13:38;;;;;;;7.10;3.88;;;;;;;17.47;29.76;99979.47;10517568;28;20672;-64
2023/04/27 14:18:41;;;;;;;9.32;3.67;;;;;;;17.92;30.37;99975.41;10516737;28;20710;-64
2023/04/27 14:23:42;;;;;;;9.25;3.80;;;;;;;17.94;29.62;99969.97;10517358;28;20051;-65
2023/04/27 14:28:44;;;;;;;18.50;4.82;;;;;;;17.99;30.12;99983.66;10498119;28;20505;-64
2023/04/27 14:33:46;;;;;;;14.05;4.53;;;;;;;18.03;31.06;99971.81;10516996;28;20631;-64
2023/04/27 14:38:48;;;;;;;19.20;7.25;;;;;;;18.30;31.30;99967.53;10531615;28;20139;-64
2023/04/27 14:43:50;;;;;;;10.10;3.80;;;;;;;18.21;29.85;99976.31;10516003;28;20419;-64
2023/04/27 14:48:52;;;;;;;7.40;3.38;;;;;;;18.09;29.91;99973.91;10516062;28;20539;-64
2023/04/27 14:53:54;;;;;;;10.35;3.80;;;;;;;17.87;30.82;99968.88;10514824;28;20044;-64
2023/04/27 14:58:56;;;;;;;7.72;3.60;;;;;;;18.36;30.40;99960.84;10515899;28;20135;-64
2023/04/27 15:03:58;;;;;;;8.85;3.50;;;;;;;18.30;30.19;99950.84;10495897;28;20044;-65
2023/04/27 15:09:00;;;;;;;7.78;3.10;;;;;;;18.51;29.67;99947.03;10514834;28;20042;-64
2023/04/27 15:14:02;;;;;;;10.23;3.58;;;;;;;18.71;29.53;99942.53;10510148;28;20040;-64
2023/04/27 15:19:04;;;;;;;6.75;3.47;;;;;;;18.14;30.32;99924.03;10514389;28;20523;-64
2023/04/27 15:24:05;;;;;;;12.30;4.65;;;;;;;18.48;29.34;99922.66;10511287;28;20052;-64
2023/04/27 15:29:07;;;;;;;9.57;3.60;;;;;;;18.20;29.16;99918.22;10495185;28;20135;-64
2023/04/27 15:34:09;;;;;;;13.50;4.43;;;;;;;17.71;30.45;99913.81;10494864;28;20040;-63
2023/04/27 15:39:11;;;;;;;10.93;3.42;;;;;;;17.54;30.27;99918.00;10489311;28;20130;-63
2023/04/27 15:44:13;;;;;;;8.75;3.92;;;;;;;17.40;31.43;99912.25;10509635;28;20051;-63
2023/04/27 15:49:15;;;;;;;14.15;4.07;;;;;;;17.71;32.34;99906.75;10511237;28;20059;-63
2023/04/27 15:54:17;;;;;;;6.38;2.92;;;;;;;17.79;31.69;99901.59;10512651;28;20044;-63
2023/04/27 15:59:19;;;;;;;8.88;2.90;;;;;;;17.85;31.35;99895.75;10511478;28;20143;-63
2023/04/27 16:04:21;;;;;;;10.80;3.20;;;;;;;17.80;30.37;99892.69;10512302;28;20050;-63
2023/04/27 16:09:22;;;;;;;9.38;3.38;;;;;;;17.62;31.75;99889.06;10512112;28;20040;-63
2023/04/27 16:14:24;;;;;;;9.68;3.50;;;;;;;17.58;30.74;99885.03;10512013;28;20040;-62
2023/04/27 16:19:26;;;;;;;6.88;3.33;;;;;;;17.44;32.01;99872.19;10509727;28;20040;-62
2023/04/27 16:24:30;;;;;;;7.05;2.78;;;;;;;17.39;32.81;99871.75;10512372;28;20134;-63
2023/04/27 16:29:32;;;;;;;7.32;3.80;;;;;;;17.21;32.14;99876.00;10510323;28;20051;-62
2023/04/27 16:34:36;;;;;;;6.38;2.70;;;;;;;17.21;32.25;99883.09;10510572;28;20067;-62
2023/04/27 16:39:37;;;;;;;7.82;2.50;;;;;;;17.15;33.53;99886.25;10508501;28;20057;-63
2023/04/27 16:44:39;;;;;;;13.07;2.80;;;;;;;17.08;33.71;99890.44;10507996;28;20488;-63
2023/04/27 16:49:42;;;;;;;8.60;3.00;;;;;;;17.07;33.37;99892.22;10489979;28;20280;-62
2023/04/27 16:54:44;;;;;;;7.95;2.65;;;;;;;16.93;31.92;99890.78;10496414;28;20300;-63
2023/04/27 16:59:46;;;;;;;8.50;2.60;;;;;;;16.94;33.11;99883.69;10507225;28;20055;-63
2023/04/27 17:04:49;;;;;;;6.05;2.35;;;;;;;17.05;33.59;99867.75;10485976;28;20050;-62
2023/04/27 17:09:53;;;;;;;4.88;2.50;;;;;;;17.02;33.45;99875.91;10502366;28;20423;-63
2023/04/27 17:14:56;;;;;;;6.80;2.40;;;;;;;16.88;34.40;99868.34;10505356;28;20051;-63
2023/04/27 17:19:58;;;;;;;6.15;2.35;;;;;;;16.68;33.97;99866.59;10504162;28;20050;-62
2023/04/27 17:25:01;;;;;;;7.53;2.42;;;;;;;16.56;34.30;99863.22;10505249;28;20116;-63
2023/04/27 17:30:03;;;;;;;7.40;2.63;;;;;;;16.44;35.06;99873.97;10499902;28;20832;-63
2023/04/27 17:35:06;;;;;;;5.15;2.38;;;;;;;16.34;35.61;99868.63;10490020;28;20093;-62
2023/04/27 17:40:09;;;;;;;7.50;2.78;;;;;;;16.28;34.98;99868.28;10505014;28;20058;-63
2023/04/27 17:45:11;;;;;;;6.85;2.60;;;;;;;16.21;34.94;99863.53;10497122;28;20408;-63
2023/04/27 17:50:13;;;;;;;9.40;2.47;;;;;;;16.20;35.93;99855.75;10505437;28;20047;-63
2023/04/27 17:55:16;;;;;;;8.57;2.63;;;;;;;16.11;35.83;99852.09;10505606;28;20084;-63
2023/04/27 18:00:18;;;;;;;8.07;2.50;;;;;;;16.07;36.46;99855.94;10505539;28;20062;-63
2023/04/27 18:05:20;;;;;;;10.60;2.63;;;;;;;15.93;36.09;99848.34;10506181;28;20140;-63
2023/04/27 18:10:22;;;;;;;8.95;2.95;;;;;;;15.74;36.15;99839.41;10518914;28;20051;-63
2023/04/27 18:15:24;;;;;;;8.63;2.55;;;;;;;15.56;37.00;99833.88;10505789;28;20605;-63
2023/04/27 18:20:26;;;;;;;12.20;2.60;;;;;;;15.38;37.59;99837.97;10507904;28;20054;-63
2023/04/27 18:25:28;;;;;;;9.77;2.50;;;;;;;15.20;38.57;99848.22;10506834;28;20036;-63
2023/04/27 18:30:30;;;;;;;10.05;3.15;;;;;;;15.05;38.17;99852.06;10506784;28;20169;-63
2023/04/27 18:35:32;;;;;;;6.78;2.67;;;;;;;15.00;38.11;99862.09;10507540;28;20052;-63
2023/04/27 18:40:35;;;;;;;10.68;2.97;;;;;;;15.03;37.98;99855.75;10474368;28;20105;-63
2023/04/27 18:45:37;;;;;;;6.97;2.88;;;;;;;15.00;38.00;99856.81;10510649;28;20066;-63
2023/04/27 18:50:39;;;;;;;7.63;2.90;;;;;;;14.97;37.56;99856.25;10510430;28;20408;-62
2023/04/27 18:55:40;;;;;;;6.93;2.90;;;;;;;14.89;37.76;99848.09;10492394;28;20188;-62
2023/04/27 19:00:42;;;;;;;6.55;2.90;;;;;;;14.71;38.03;99852.19;10513604;28;20036;-62
2023/04/27 19:05:44;;;;;;;7.72;2.97;;;;;;;14.52;38.40;99858.03;10508575;28;20040;-62
2023/04/27 19:10:49;;;;;;;8.63;2.80;;;;;;;14.22;39.21;99863.81;10513207;28;20480;-62
2023/04/27 19:15:50;;;;;;;8.07;3.17;;;;;;;14.20;39.13;99863.09;10508341;28;20408;-62
2023/04/27 19:20:52;;;;;;;9.05;3.15;;;;;;;14.18;39.27;99872.06;10513619;28;20403;-62
2023/04/27 19:25:55;;;;;;;8.85;3.30;;;;;;;14.06;40.59;99879.09;10509218;28;20047;-62
2023/04/27 19:31:06;;;;;;;9.32;4.32;;;;;;;13.85;39.71;99878.03;10507896;28;20059;-62
2023/04/27 19:36:08;;;;;;;11.02;4.15;;;;;;;13.76;39.85;99870.81;10510480;28;20071;-62
2023/04/27 19:41:12;;;;;;;10.13;4.40;;;;;;;13.59;39.41;99874.72;10510941;28;20468;-62
2023/04/27 19:46:14;;;;;;;8.38;4.30;;;;;;;13.54;40.06;99886.47;10510277;28;20511;-61
2023/04/27 19:51:16;;;;;;;10.32;4.25;;;;;;;13.50;40.35;99887.66;10489670;28;20135;-62
2023/04/27 19:56:18;;;;;;;10.02;4.70;;;;;;;13.35;40.75;99875.59;10511402;28;20048;-61
2023/04/27 20:01:20;;;;;;;15.00;4.63;;;;;;;13.11;41.58;99877.38;10508863;28;20076;-61
2023/04/27 20:06:22;;;;;;;11.25;4.65;;;;;;;13.05;42.10;99888.31;10505475;28;20044;-62
2023/04/27 20:11:24;;;;;;;8.57;4.47;;;;;;;13.06;42.25;99884.72;10519020;28;20202;-61
2023/04/27 20:16:26;;;;;;;11.32;4.90;;;;;;;12.93;42.11;99887.34;10501771;28;20046;-61
2023/04/27 20:21:28;;;;;;;13.02;4.63;;;;;;;12.83;42.02;99876.66;10502425;28;20109;-61
2023/04/27 20:26:31;;;;;;;10.70;4.85;;;;;;;12.77;42.18;99874.47;10498778;28;20048;-61
2023/04/27 20:31:33;;;;;;;12.07;5.13;;;;;;;12.76;42.61;99870.16;10510227;28;20059;-61
2023/04/27 20:36:35;;;;;;;13.88;5.25;;;;;;;12.81;42.52;99870.69;10508637;28;20048;-60
2023/04/27 20:41:41;;;;;;;11.68;5.15;;;;;;;12.88;42.45;99873.72;10510452;28;20130;-60
2023/04/27 20:46:43;;;;;;;8.77;4.90;;;;;;;12.84;43.10;99870.47;10511326;28;20044;-61
2023/04/27 20:51:45;;;;;;;10.05;5.00;;;;;;;12.94;43.60;99855.75;10508877;28;20066;-60
2023/04/27 20:56:47;;;;;;;12.27;5.00;;;;;;;13.03;43.85;99851.63;10523848;28;20044;-60
2023/04/27 21:01:49;;;;;;;11.13;4.80;;;;;;;13.07;44.28;99849.66;10508094;28;20087;-61
2023/04/27 21:06:51;;;;;;;12.30;4.97;;;;;;;13.07;44.35;99839.16;10508185;28;20040;-60
2023/04/27 21:11:53;;;;;;;8.90;4.53;;;;;;;13.10;44.52;99854.66;10508781;28;20040;-60
2023/04/27 21:16:55;;;;;;;8.80;4.38;;;;;;;13.09;43.88;99842.50;10509102;28;20051;-60
2023/04/27 21:21:57;;;;;;;10.43;4.38;;;;;;;13.01;44.38;99839.56;10508759;28;20071;-61
2023/04/27 21:26:59;;;;;;;9.18;4.70;;;;;;;12.94;44.37;99847.06;10508535;28;20050;-60
2023/04/27 21:32:01;;;;;;;10.43;4.75;;;;;;;12.82;44.10;99855.78;10509128;28;20484;-60
2023/04/27 21:37:02;;;;;;;13.80;4.82;;;;;;;12.62;44.24;99844.03;10491260;28;20117;-61
2023/04/27 21:42:04;;;;;;;11.23;5.28;;;;;;;12.63;44.43;99837.88;10507612;28;20565;-60
2023/04/27 21:47:06;;;;;;;11.00;5.22;;;;;;;12.64;44.74;99833.47;10509129;28;20127;-60
2023/04/27 21:52:09;;;;;;;9.43;4.47;;;;;;;12.46;45.12;99827.69;10506990;28;20050;-61
2023/04/27 21:57:11;;;;;;;10.13;5.07;;;;;;;12.49;45.23;99822.25;10508361;28;20044;-60
2023/04/27 22:02:12;;;;;;;13.93;5.40;;;;;;;12.45;44.71;99817.31;10507935;28;20063;-60
2023/04/27 22:07:14;;;;;;;10.50;4.78;;;;;;;12.23;45.23;99815.31;10503564;28;20048;-60
2023/04/27 22:12:16;;;;;;;11.15;5.18;;;;;;;12.25;45.39;99808.16;10485123;28;20141;-60
2023/04/27 22:17:18;;;;;;;9.32;5.10;;;;;;;12.29;45.50;99814.91;10512445;28;20127;-60
2023/04/27 22:22:20;;;;;;;16.65;5.32;;;;;;;12.41;45.65;99813.22;10515097;28;20044;-60
2023/04/27 22:27:21;;;;;;;9.30;5.30;;;;;;;12.46;45.64;99801.47;10514185;28;20491;-60
2023/04/27 22:32:26;;;;;;;9.90;4.95;;;;;;;12.44;44.74;99807.75;10514182;28;20052;-61
2023/04/27 22:37:28;;;;;;;9.57;4.57;;;;;;;12.50;44.88;99805.53;10493527;28;20093;-60
2023/04/27 22:42:30;;;;;;;10.75;5.10;;;;;;;12.54;45.11;99795.66;10514381;28;20040;-61
2023/04/27 22:47:32;;;;;;;9.55;4.80;;;;;;;12.55;45.28;99786.88;10495448;28;20052;-60
2023/04/27 22:52:36;;;;;;;11.23;5.65;;;;;;;12.38;45.64;99793.28;10496837;28;20051;-60
2023/04/27 22:57:38;;;;;;;10.90;4.78;;;;;;;12.21;46.16;99801.47;10510214;28;20052;-60
2023/04/27 23:02:40;;;;;;;12.10;5.00;;;;;;;12.27;46.29;99797.56;10513264;28;20050;-60
2023/04/27 23:07:42;;;;;;;10.75;5.18;;;;;;;12.42;46.00;99794.75;10511479;28;20051;-60
2023/04/27 23:12:44;;;;;;;13.48;5.78;;;;;;;12.49;46.29;99784.69;10508586;28;20063;-60
2023/04/27 23:17:46;;;;;;;11.55;7.53;;;;;;;12.50;46.43;99773.22;10511554;28;20656;-60